sensor_id;sensor_type;location;lat;lon;timestamp;pressure;altitude;pressure_sealevel;temperature;humidity
4570;BME280;2297;51.442;6.996;2023-08-06T00:00:20;99201.69;;;17.72;59.92
4570;BME280;2297;51.442;6.996;2023-08-06T00:02:46;99202.94;;;17.79;59.81
4570;BME280;2297;51.442;6.996;2023-08-06T00:05:13;99205.66;;;17.65;60.24
4570;BME280;2297;51.442;6.996;2023-08-06T00:07:43;99208.28;;;17.66;59.93
4570;BME280;2297;51.442;6.996;2023-08-06T00:10:11;99204.00;;;17.63;60.11
4570;BME280;2297;51.442;6.996;2023-08-06T00:12:38;99206.13;;;17.71;59.73
4570;BME280;2297;51.442;6.996;2023-08-06T00:15:05;99200.63;;;17.74;59.87
4570;BME280;2297;51.442;6.996;2023-08-06T00:17:32;99200.63;;;17.74;59.87
4570;BME280;2297;51.442;6.996;2023-08-06T00:19:59;99193.66;;;17.72;59.84
4570;BME280;2297;51.442;6.996;2023-08-06T00:22:30;99195.28;;;17.74;59.67
4570;BME280;2297;51.442;6.996;2023-08-06T00:24:56;99191.59;;;17.62;59.59
4570;BME280;2297;51.442;6.996;2023-08-06T00:27:25;99181.50;;;17.40;60.34
4570;BME280;2297;51.442;6.996;2023-08-06T00:29:52;99179.16;;;17.49;59.89
4570;BME280;2297;51.442;6.996;2023-08-06T00:32:19;99179.78;;;17.39;60.14
4570;BME280;2297;51.442;6.996;2023-08-06T00:34:45;99172.03;;;17.49;60.05
4570;BME280;2297;51.442;6.996;2023-08-06T00:37:14;99166.25;;;17.55;59.88
4570;BME280;2297;51.442;6.996;2023-08-06T00:39:41;99171.53;;;17.57;59.59
4570;BME280;2297;51.442;6.996;2023-08-06T00:42:08;99167.88;;;17.58;59.65
4570;BME280;2297;51.442;6.996;2023-08-06T00:44:36;99171.94;;;17.51;59.88
4570;BME280;2297;51.442;6.996;2023-08-06T00:47:03;99169.81;;;17.56;59.80
4570;BME280;2297;51.442;6.996;2023-08-06T00:49:30;99162.13;;;17.64;59.64
4570;BME280;2297;51.442;6.996;2023-08-06T00:51:57;99155.53;;;17.70;59.48
4570;BME280;2297;51.442;6.996;2023-08-06T00:54:24;99155.94;;;17.76;59.39
4570;BME280;2297;51.442;6.996;2023-08-06T00:56:52;99152.97;;;17.81;59.29
4570;BME280;2297;51.442;6.996;2023-08-06T00:59:19;99159.06;;;17.83;59.25
4570;BME280;2297;51.442;6.996;2023-08-06T01:01:47;99155.53;;;17.83;59.45
4570;BME280;2297;51.442;6.996;2023-08-06T01:04:15;99155.19;;;17.87;59.27
4570;BME280;2297;51.442;6.996;2023-08-06T01:06:46;99150.63;;;17.89;59.26
4570;BME280;2297;51.442;6.996;2023-08-06T01:09:25;99154.38;;;17.87;59.02
4570;BME280;2297;51.442;6.996;2023-08-06T01:12:06;99155.84;;;17.65;59.67
4570;BME280;2297;51.442;6.996;2023-08-06T01:14:39;99144.84;;;17.70;59.52
4570;BME280;2297;51.442;6.996;2023-08-06T01:17:09;99150.84;;;17.73;59.38
4570;BME280;2297;51.442;6.996;2023-08-06T01:19:37;99153.97;;;17.53;59.43
4570;BME280;2297;51.442;6.996;2023-08-06T01:22:05;99148.13;;;17.60;59.42
4570;BME280;2297;51.442;6.996;2023-08-06T01:24:32;99149.56;;;17.66;59.57
4570;BME280;2297;51.442;6.996;2023-08-06T01:27:04;99145.00;;;17.54;59.53
4570;BME280;2297;51.442;6.996;2023-08-06T01:29:37;99153.34;;;17.49;59.76
4570;BME280;2297;51.442;6.996;2023-08-06T01:32:08;99156.56;;;17.54;59.58
4570;BME280;2297;51.442;6.996;2023-08-06T01:34:36;99140.97;;;17.61;59.45
4570;BME280;2297;51.442;6.996;2023-08-06T01:37:06;99147.84;;;17.65;59.44
4570;BME280;2297;51.442;6.996;2023-08-06T01:39:34;99142.16;;;17.57;59.65
4570;BME280;2297;51.442;6.996;2023-08-06T01:42:00;99145.88;;;17.54;59.71
4570;BME280;2297;51.442;6.996;2023-08-06T01:44:27;99145.00;;;17.54;59.88
4570;BME280;2297;51.442;6.996;2023-08-06T01:46:54;99141.06;;;17.46;59.85
4570;BME280;2297;51.442;6.996;2023-08-06T01:49:21;99131.56;;;17.42;59.77
4570;BME280;2297;51.442;6.996;2023-08-06T01:51:47;99135.75;;;17.46;59.83
4570;BME280;2297;51.442;6.996;2023-08-06T01:54:15;99131.56;;;17.55;59.67
4570;BME280;2297;51.442;6.996;2023-08-06T01:56:42;99124.97;;;17.61;59.58
4570;BME280;2297;51.442;6.996;2023-08-06T01:59:09;99131.84;;;17.65;59.52
4570;BME280;2297;51.442;6.996;2023-08-06T02:01:35;99122.66;;;17.69;59.42
4570;BME280;2297;51.442;6.996;2023-08-06T02:04:02;99121.88;;;17.67;59.39
4570;BME280;2297;51.442;6.996;2023-08-06T02:06:29;99123.47;;;17.57;59.59
4570;BME280;2297;51.442;6.996;2023-08-06T02:08:55;99123.03;;;17.63;59.59
4570;BME280;2297;51.442;6.996;2023-08-06T02:11:23;99128.22;;;17.66;59.27
4570;BME280;2297;51.442;6.996;2023-08-06T02:13:50;99122.88;;;17.66;59.46
4570;BME280;2297;51.442;6.996;2023-08-06T02:16:16;99121.53;;;17.59;59.47
4570;BME280;2297;51.442;6.996;2023-08-06T02:18:43;99120.59;;;17.60;59.70
4570;BME280;2297;51.442;6.996;2023-08-06T02:21:10;99117.53;;;17.66;59.40
4570;BME280;2297;51.442;6.996;2023-08-06T02:23:36;99118.97;;;17.44;59.99
4570;BME280;2297;51.442;6.996;2023-08-06T02:26:04;99110.44;;;17.52;59.87
4570;BME280;2297;51.442;6.996;2023-08-06T02:28:32;99105.84;;;17.41;60.03
4570;BME280;2297;51.442;6.996;2023-08-06T02:30:59;99106.38;;;17.46;59.86
4570;BME280;2297;51.442;6.996;2023-08-06T02:33:26;99107.97;;;17.36;59.88
4570;BME280;2297;51.442;6.996;2023-08-06T02:35:59;99102.22;;;17.42;59.66
4570;BME280;2297;51.442;6.996;2023-08-06T02:38:26;99105.44;;;17.48;59.60
4570;BME280;2297;51.442;6.996;2023-08-06T02:40:53;99100.41;;;17.56;59.41
4570;BME280;2297;51.442;6.996;2023-08-06T02:43:19;99102.09;;;17.31;59.62
4570;BME280;2297;51.442;6.996;2023-08-06T02:45:47;99096.34;;;17.37;59.78
4570;BME280;2297;51.442;6.996;2023-08-06T02:48:14;99086.47;;;17.25;60.17
4570;BME280;2297;51.442;6.996;2023-08-06T02:50:41;99095.25;;;17.27;59.90
4570;BME280;2297;51.442;6.996;2023-08-06T02:53:08;99098.88;;;17.26;59.93
4570;BME280;2297;51.442;6.996;2023-08-06T02:55:35;99091.81;;;17.25;60.26
4570;BME280;2297;51.442;6.996;2023-08-06T02:58:02;99091.72;;;17.13;60.42
4570;BME280;2297;51.442;6.996;2023-08-06T03:00:29;99083.72;;;17.13;60.23
4570;BME280;2297;51.442;6.996;2023-08-06T03:02:57;99085.31;;;17.16;60.29
4570;BME280;2297;51.442;6.996;2023-08-06T03:05:23;99072.53;;;17.21;60.24
4570;BME280;2297;51.442;6.996;2023-08-06T03:07:50;99075.09;;;17.23;60.13
4570;BME280;2297;51.442;6.996;2023-08-06T03:10:17;99071.34;;;17.25;60.07
4570;BME280;2297;51.442;6.996;2023-08-06T03:12:43;99066.66;;;17.29;59.69
4570;BME280;2297;51.442;6.996;2023-08-06T03:15:10;99069.00;;;17.34;59.64
4570;BME280;2297;51.442;6.996;2023-08-06T03:17:37;99067.50;;;17.29;59.79
4570;BME280;2297;51.442;6.996;2023-08-06T03:20:06;99063.00;;;17.30;59.76
4570;BME280;2297;51.442;6.996;2023-08-06T03:22:33;99071.03;;;17.30;59.28
4570;BME280;2297;51.442;6.996;2023-08-06T03:25:00;99071.97;;;17.16;59.75
4570;BME280;2297;51.442;6.996;2023-08-06T03:27:26;99067.72;;;17.13;60.13
4570;BME280;2297;51.442;6.996;2023-08-06T03:29:53;99066.75;;;17.15;59.95
4570;BME280;2297;51.442;6.996;2023-08-06T03:32:20;99057.59;;;17.19;60.10
4570;BME280;2297;51.442;6.996;2023-08-06T03:34:47;99063.66;;;17.21;59.75
4570;BME280;2297;51.442;6.996;2023-08-06T03:37:15;99064.06;;;17.27;59.69
4570;BME280;2297;51.442;6.996;2023-08-06T03:39:42;99066.44;;;17.32;59.16
4570;BME280;2297;51.442;6.996;2023-08-06T03:42:08;99056.84;;;17.29;59.28
4570;BME280;2297;51.442;6.996;2023-08-06T03:44:35;99055.88;;;17.31;59.38
4570;BME280;2297;51.442;6.996;2023-08-06T03:47:02;99059.63;;;17.28;59.53
4570;BME280;2297;51.442;6.996;2023-08-06T03:49:28;99056.41;;;17.23;59.60
4570;BME280;2297;51.442;6.996;2023-08-06T03:51:55;99054.06;;;17.31;59.42
4570;BME280;2297;51.442;6.996;2023-08-06T03:54:23;99051.06;;;17.10;60.10
4570;BME280;2297;51.442;6.996;2023-08-06T03:56:49;99057.88;;;17.01;60.33
4570;BME280;2297;51.442;6.996;2023-08-06T03:59:16;99052.97;;;17.08;60.20
4570;BME280;2297;51.442;6.996;2023-08-06T04:01:45;99055.75;;;17.19;59.78
4570;BME280;2297;51.442;6.996;2023-08-06T04:04:12;99057.03;;;17.13;59.92
4570;BME280;2297;51.442;6.996;2023-08-06T04:06:38;99054.91;;;17.19;59.88
4570;BME280;2297;51.442;6.996;2023-08-06T04:09:05;99051.28;;;17.20;59.62
4570;BME280;2297;51.442;6.996;2023-08-06T04:11:33;99051.38;;;17.31;59.44
4570;BME280;2297;51.442;6.996;2023-08-06T04:14:00;99048.41;;;17.23;59.58
4570;BME280;2297;51.442;6.996;2023-08-06T04:16:26;99053.75;;;17.36;59.35
4570;BME280;2297;51.442;6.996;2023-08-06T04:18:54;99051.16;;;17.34;59.27
4570;BME280;2297;51.442;6.996;2023-08-06T04:21:20;99050.97;;;17.37;58.99
4570;BME280;2297;51.442;6.996;2023-08-06T04:23:50;99045.50;;;17.26;59.36
4570;BME280;2297;51.442;6.996;2023-08-06T04:26:17;99047.56;;;17.35;59.12
4570;BME280;2297;51.442;6.996;2023-08-06T04:28:45;99046.59;;;17.36;59.05
4570;BME280;2297;51.442;6.996;2023-08-06T04:31:11;99051.16;;;17.34;59.21
4570;BME280;2297;51.442;6.996;2023-08-06T04:33:47;99047.88;;;17.43;58.83
4570;BME280;2297;51.442;6.996;2023-08-06T04:36:13;99042.09;;;17.50;58.61
4570;BME280;2297;51.442;6.996;2023-08-06T04:38:40;99043.81;;;17.51;58.62
4570;BME280;2297;51.442;6.996;2023-08-06T04:41:10;99039.56;;;17.48;58.66
4570;BME280;2297;51.442;6.996;2023-08-06T04:43:37;99042.00;;;17.51;58.53
4570;BME280;2297;51.442;6.996;2023-08-06T04:46:05;99045.53;;;17.52;58.45
4570;BME280;2297;51.442;6.996;2023-08-06T04:48:32;99049.38;;;17.48;58.70
4570;BME280;2297;51.442;6.996;2023-08-06T04:50:58;99043.50;;;17.42;59.03
4570;BME280;2297;51.442;6.996;2023-08-06T04:53:25;99056.63;;;17.45;58.99
4570;BME280;2297;51.442;6.996;2023-08-06T04:55:52;99054.38;;;17.52;58.95
4570;BME280;2297;51.442;6.996;2023-08-06T04:58:18;99054.28;;;17.54;58.71
4570;BME280;2297;51.442;6.996;2023-08-06T05:00:45;99052.78;;;17.62;58.73
4570;BME280;2297;51.442;6.996;2023-08-06T05:03:13;99057.25;;;17.62;58.57
4570;BME280;2297;51.442;6.996;2023-08-06T05:05:40;99053.50;;;17.65;58.63
4570;BME280;2297;51.442;6.996;2023-08-06T05:08:06;99056.88;;;17.68;58.97
4570;BME280;2297;51.442;6.996;2023-08-06T05:10:33;99049.38;;;17.73;58.59
4570;BME280;2297;51.442;6.996;2023-08-06T05:13:00;99052.81;;;17.75;58.29
4570;BME280;2297;51.442;6.996;2023-08-06T05:15:26;99052.34;;;17.82;58.08
4570;BME280;2297;51.442;6.996;2023-08-06T05:17:53;99061.13;;;17.84;57.87
4570;BME280;2297;51.442;6.996;2023-08-06T05:20:26;99062.44;;;17.65;58.37
4570;BME280;2297;51.442;6.996;2023-08-06T05:22:53;99057.69;;;17.82;58.16
4570;BME280;2297;51.442;6.996;2023-08-06T05:25:20;99064.22;;;17.90;58.06
4570;BME280;2297;51.442;6.996;2023-08-06T05:27:46;99070.19;;;17.94;57.71
4570;BME280;2297;51.442;6.996;2023-08-06T05:30:13;99074.34;;;17.98;57.63
4570;BME280;2297;51.442;6.996;2023-08-06T05:32:40;99074.66;;;18.06;57.64
4570;BME280;2297;51.442;6.996;2023-08-06T05:35:07;99071.56;;;18.12;57.22
4570;BME280;2297;51.442;6.996;2023-08-06T05:37:35;99080.09;;;18.05;57.58
4570;BME280;2297;51.442;6.996;2023-08-06T05:40:02;99076.03;;;18.12;57.46
4570;BME280;2297;51.442;6.996;2023-08-06T05:42:29;99087.56;;;18.12;57.41
4570;BME280;2297;51.442;6.996;2023-08-06T05:44:56;99084.25;;;18.22;56.98
4570;BME280;2297;51.442;6.996;2023-08-06T05:47:22;99089.25;;;18.13;57.31
4570;BME280;2297;51.442;6.996;2023-08-06T05:49:49;99094.41;;;18.17;57.12
4570;BME280;2297;51.442;6.996;2023-08-06T05:52:16;99087.63;;;18.24;56.88
4570;BME280;2297;51.442;6.996;2023-08-06T05:54:44;99087.75;;;18.22;57.14
4570;BME280;2297;51.442;6.996;2023-08-06T05:57:10;99095.13;;;18.19;56.79
4570;BME280;2297;51.442;6.996;2023-08-06T05:59:37;99090.41;;;18.35;56.44
4570;BME280;2297;51.442;6.996;2023-08-06T06:02:04;99089.94;;;18.41;56.32
4570;BME280;2297;51.442;6.996;2023-08-06T06:04:30;99098.38;;;18.48;56.32
4570;BME280;2297;51.442;6.996;2023-08-06T06:06:57;99097.78;;;18.44;56.68
4570;BME280;2297;51.442;6.996;2023-08-06T06:09:24;99095.63;;;18.50;56.28
4570;BME280;2297;51.442;6.996;2023-08-06T06:11:52;99095.28;;;18.54;56.06
4570;BME280;2297;51.442;6.996;2023-08-06T06:14:19;99102.22;;;18.57;55.83
4570;BME280;2297;51.442;6.996;2023-08-06T06:16:46;99092.56;;;18.67;55.83
4570;BME280;2297;51.442;6.996;2023-08-06T06:19:12;99099.38;;;18.71;55.53
4570;BME280;2297;51.442;6.996;2023-08-06T06:21:39;99103.28;;;18.54;55.94
4570;BME280;2297;51.442;6.996;2023-08-06T06:24:06;99108.59;;;18.67;55.50
4570;BME280;2297;51.442;6.996;2023-08-06T06:26:33;99111.31;;;18.78;55.22
4570;BME280;2297;51.442;6.996;2023-08-06T06:29:01;99106.34;;;18.85;54.87
4570;BME280;2297;51.442;6.996;2023-08-06T06:31:28;99104.72;;;18.95;55.02
4570;BME280;2297;51.442;6.996;2023-08-06T06:33:55;99108.00;;;18.99;54.42
4570;BME280;2297;51.442;6.996;2023-08-06T06:36:21;99110.94;;;18.96;54.24
4570;BME280;2297;51.442;6.996;2023-08-06T06:38:49;99107.25;;;18.97;54.03
4570;BME280;2297;51.442;6.996;2023-08-06T06:41:15;99115.97;;;18.88;53.96
4570;BME280;2297;51.442;6.996;2023-08-06T06:43:42;99118.03;;;18.60;54.36
4570;BME280;2297;51.442;6.996;2023-08-06T06:46:10;99121.28;;;18.76;53.98
4570;BME280;2297;51.442;6.996;2023-08-06T06:48:37;99115.78;;;18.91;53.83
4570;BME280;2297;51.442;6.996;2023-08-06T06:51:04;99118.81;;;18.73;54.06
4570;BME280;2297;51.442;6.996;2023-08-06T06:53:30;99109.94;;;18.97;53.77
4570;BME280;2297;51.442;6.996;2023-08-06T06:56:02;99111.91;;;19.06;53.10
4570;BME280;2297;51.442;6.996;2023-08-06T06:58:29;99108.53;;;19.04;53.15
4570;BME280;2297;51.442;6.996;2023-08-06T07:00:57;99112.09;;;19.16;52.70
4570;BME280;2297;51.442;6.996;2023-08-06T07:03:25;99113.97;;;19.27;52.51
4570;BME280;2297;51.442;6.996;2023-08-06T07:05:57;99110.06;;;19.20;52.69
4570;BME280;2297;51.442;6.996;2023-08-06T07:08:24;99114.63;;;18.82;54.14
4570;BME280;2297;51.442;6.996;2023-08-06T07:10:59;99116.03;;;18.99;53.90
4570;BME280;2297;51.442;6.996;2023-08-06T07:13:26;99113.50;;;19.09;53.65
4570;BME280;2297;51.442;6.996;2023-08-06T07:15:55;99124.56;;;19.04;53.91
4570;BME280;2297;51.442;6.996;2023-08-06T07:18:23;99116.03;;;18.51;55.40
4570;BME280;2297;51.442;6.996;2023-08-06T07:20:54;99118.53;;;18.89;54.27
4570;BME280;2297;51.442;6.996;2023-08-06T07:23:34;99121.09;;;19.15;53.80
4570;BME280;2297;51.442;6.996;2023-08-06T07:26:01;99119.22;;;19.28;53.63
4570;BME280;2297;51.442;6.996;2023-08-06T07:28:28;99120.13;;;19.16;52.85
4570;BME280;2297;51.442;6.996;2023-08-06T07:30:54;99125.47;;;19.16;53.10
4570;BME280;2297;51.442;6.996;2023-08-06T07:33:21;99124.59;;;19.16;52.98
4570;BME280;2297;51.442;6.996;2023-08-06T07:35:48;99126.88;;;19.33;53.16
4570;BME280;2297;51.442;6.996;2023-08-06T07:38:16;99130.16;;;19.25;52.63
4570;BME280;2297;51.442;6.996;2023-08-06T07:40:42;99127.88;;;19.43;52.46
4570;BME280;2297;51.442;6.996;2023-08-06T07:43:09;99131.97;;;19.25;52.79
4570;BME280;2297;51.442;6.996;2023-08-06T07:45:36;99129.09;;;19.39;52.05
4570;BME280;2297;51.442;6.996;2023-08-06T07:48:04;99137.41;;;19.59;51.86
4570;BME280;2297;51.442;6.996;2023-08-06T07:50:31;99134.28;;;19.76;51.78
4570;BME280;2297;51.442;6.996;2023-08-06T07:52:58;99134.19;;;19.89;51.92
4570;BME280;2297;51.442;6.996;2023-08-06T07:55:26;99135.03;;;19.90;51.91
4570;BME280;2297;51.442;6.996;2023-08-06T07:57:53;99132.69;;;19.74;51.62
4570;BME280;2297;51.442;6.996;2023-08-06T08:00:20;99136.28;;;19.97;51.06
4570;BME280;2297;51.442;6.996;2023-08-06T08:02:47;99140.19;;;20.16;50.88
4570;BME280;2297;51.442;6.996;2023-08-06T08:05:13;99144.34;;;20.20;50.53
4570;BME280;2297;51.442;6.996;2023-08-06T08:07:40;99138.22;;;20.18;50.31
4570;BME280;2297;51.442;6.996;2023-08-06T08:10:07;99148.44;;;20.35;50.16
4570;BME280;2297;51.442;6.996;2023-08-06T08:12:35;99146.63;;;20.36;50.01
4570;BME280;2297;51.442;6.996;2023-08-06T08:15:03;99141.63;;;20.31;49.48
4570;BME280;2297;51.442;6.996;2023-08-06T08:17:29;99143.81;;;20.26;50.01
4570;BME280;2297;51.442;6.996;2023-08-06T08:19:56;99149.06;;;20.16;50.23
4570;BME280;2297;51.442;6.996;2023-08-06T08:22:23;99144.34;;;20.20;50.32
4570;BME280;2297;51.442;6.996;2023-08-06T08:24:49;99147.50;;;20.14;50.42
4570;BME280;2297;51.442;6.996;2023-08-06T08:27:16;99141.41;;;20.23;50.08
4570;BME280;2297;51.442;6.996;2023-08-06T08:29:44;99148.97;;;20.29;50.13
4570;BME280;2297;51.442;6.996;2023-08-06T08:32:11;99146.03;;;20.09;50.04
4570;BME280;2297;51.442;6.996;2023-08-06T08:34:37;99151.63;;;20.18;49.98
4570;BME280;2297;51.442;6.996;2023-08-06T08:37:04;99146.38;;;20.16;49.63
4570;BME280;2297;51.442;6.996;2023-08-06T08:39:31;99146.66;;;20.13;49.93
4570;BME280;2297;51.442;6.996;2023-08-06T08:41:58;99150.91;;;20.16;50.35
4570;BME280;2297;51.442;6.996;2023-08-06T08:44:26;99154.31;;;20.18;50.29
4570;BME280;2297;51.442;6.996;2023-08-06T08:46:56;99159.41;;;19.98;50.40
4570;BME280;2297;51.442;6.996;2023-08-06T08:49:24;99151.13;;;20.35;49.89
4570;BME280;2297;51.442;6.996;2023-08-06T08:51:53;99150.91;;;20.38;49.90
4570;BME280;2297;51.442;6.996;2023-08-06T08:54:23;99150.50;;;20.54;49.45
4570;BME280;2297;51.442;6.996;2023-08-06T08:56:59;99147.19;;;20.73;49.25
4570;BME280;2297;51.442;6.996;2023-08-06T08:59:27;99150.84;;;20.84;48.85
4570;BME280;2297;51.442;6.996;2023-08-06T09:01:56;99156.81;;;20.76;48.90
4570;BME280;2297;51.442;6.996;2023-08-06T09:04:26;99156.03;;;20.97;47.68
4570;BME280;2297;51.442;6.996;2023-08-06T09:06:54;99156.81;;;20.87;48.23
4570;BME280;2297;51.442;6.996;2023-08-06T09:09:26;99160.13;;;21.12;47.91
4570;BME280;2297;51.442;6.996;2023-08-06T09:11:55;99165.88;;;21.07;47.37
4570;BME280;2297;51.442;6.996;2023-08-06T09:14:26;99160.31;;;20.99;46.90
4570;BME280;2297;51.442;6.996;2023-08-06T09:16:53;99163.69;;;21.01;47.26
4570;BME280;2297;51.442;6.996;2023-08-06T09:19:22;99161.75;;;21.03;47.83
4570;BME280;2297;51.442;6.996;2023-08-06T09:21:51;99155.50;;;21.03;47.06
4570;BME280;2297;51.442;6.996;2023-08-06T09:24:18;99171.25;;;21.07;47.40
4570;BME280;2297;51.442;6.996;2023-08-06T09:26:45;99165.41;;;21.02;47.66
4570;BME280;2297;51.442;6.996;2023-08-06T09:29:12;99166.91;;;20.95;48.39
4570;BME280;2297;51.442;6.996;2023-08-06T09:31:42;99165.22;;;20.83;48.59
4570;BME280;2297;51.442;6.996;2023-08-06T09:34:11;99175.94;;;20.83;48.85
4570;BME280;2297;51.442;6.996;2023-08-06T09:36:43;99176.34;;;20.67;48.89
4570;BME280;2297;51.442;6.996;2023-08-06T09:39:12;99175.97;;;20.60;49.22
4570;BME280;2297;51.442;6.996;2023-08-06T09:41:39;99186.94;;;20.68;49.27
4570;BME280;2297;51.442;6.996;2023-08-06T09:44:15;99186.34;;;20.53;49.85
4570;BME280;2297;51.442;6.996;2023-08-06T09:46:42;99189.13;;;20.40;50.11
4570;BME280;2297;51.442;6.996;2023-08-06T09:49:08;99187.69;;;20.48;49.85
4570;BME280;2297;51.442;6.996;2023-08-06T09:51:36;99186.22;;;20.55;50.01
4570;BME280;2297;51.442;6.996;2023-08-06T09:54:18;99186.94;;;20.57;50.46
4570;BME280;2297;51.442;6.996;2023-08-06T09:56:45;99184.78;;;20.28;49.19
4570;BME280;2297;51.442;6.996;2023-08-06T09:59:12;99194.00;;;20.35;48.51
4570;BME280;2297;51.442;6.996;2023-08-06T10:01:41;99187.69;;;20.48;48.18
4570;BME280;2297;51.442;6.996;2023-08-06T10:04:08;99184.03;;;20.71;47.64
4570;BME280;2297;51.442;6.996;2023-08-06T10:06:37;99190.13;;;20.73;47.69
4570;BME280;2297;51.442;6.996;2023-08-06T10:09:04;99192.03;;;20.94;47.67
4570;BME280;2297;51.442;6.996;2023-08-06T10:11:32;99189.13;;;20.86;47.74
4570;BME280;2297;51.442;6.996;2023-08-06T10:14:02;99190.66;;;21.11;47.59
4570;BME280;2297;51.442;6.996;2023-08-06T10:16:31;99187.56;;;21.16;47.86
4570;BME280;2297;51.442;6.996;2023-08-06T10:18:58;99183.06;;;21.49;47.58
4570;BME280;2297;51.442;6.996;2023-08-06T10:21:25;99185.91;;;21.68;47.51
4570;BME280;2297;51.442;6.996;2023-08-06T10:23:54;99186.78;;;21.78;47.46
4570;BME280;2297;51.442;6.996;2023-08-06T10:26:20;99184.78;;;21.50;47.30
4570;BME280;2297;51.442;6.996;2023-08-06T10:28:52;99178.97;;;21.33;47.78
4570;BME280;2297;51.442;6.996;2023-08-06T10:31:19;99183.09;;;21.05;48.04
4570;BME280;2297;51.442;6.996;2023-08-06T10:33:47;99182.28;;;20.82;45.52
4570;BME280;2297;51.442;6.996;2023-08-06T10:36:14;99182.97;;;21.06;46.24
4570;BME280;2297;51.442;6.996;2023-08-06T10:38:45;99197.66;;;20.80;45.06
4570;BME280;2297;51.442;6.996;2023-08-06T10:41:16;99192.41;;;21.33;44.14
4570;BME280;2297;51.442;6.996;2023-08-06T10:43:43;99195.69;;;20.82;43.69
4570;BME280;2297;51.442;6.996;2023-08-06T10:46:21;99192.16;;;21.25;43.93
4570;BME280;2297;51.442;6.996;2023-08-06T10:48:49;99192.63;;;21.41;43.91
4570;BME280;2297;51.442;6.996;2023-08-06T10:51:15;99197.72;;;21.44;44.28
4570;BME280;2297;51.442;6.996;2023-08-06T10:53:43;99197.00;;;21.64;43.75
4570;BME280;2297;51.442;6.996;2023-08-06T10:56:47;99198.88;;;21.84;44.16
4570;BME280;2297;51.442;6.996;2023-08-06T10:59:15;99204.44;;;22.14;43.66
4570;BME280;2297;51.442;6.996;2023-08-06T11:01:43;99198.78;;;22.17;43.66
4570;BME280;2297;51.442;6.996;2023-08-06T11:04:09;99206.00;;;21.95;44.22
4570;BME280;2297;51.442;6.996;2023-08-06T11:06:42;99197.97;;;22.26;43.21
4570;BME280;2297;51.442;6.996;2023-08-06T11:09:09;99199.41;;;22.30;43.21
4570;BME280;2297;51.442;6.996;2023-08-06T11:11:37;99201.09;;;22.31;43.49
4570;BME280;2297;51.442;6.996;2023-08-06T11:14:04;99205.53;;;22.11;43.54
4570;BME280;2297;51.442;6.996;2023-08-06T11:16:30;99201.38;;;22.28;43.89
4570;BME280;2297;51.442;6.996;2023-08-06T11:18:59;99203.91;;;22.20;44.62
4570;BME280;2297;51.442;6.996;2023-08-06T11:21:26;99212.69;;;21.80;45.50
4570;BME280;2297;51.442;6.996;2023-08-06T11:23:53;99223.97;;;20.97;47.00
4570;BME280;2297;51.442;6.996;2023-08-06T11:26:20;99211.28;;;21.32;46.73
4570;BME280;2297;51.442;6.996;2023-08-06T11:28:46;99218.16;;;20.47;49.13
4570;BME280;2297;51.442;6.996;2023-08-06T11:31:19;99235.09;;;19.89;52.08
4570;BME280;2297;51.442;6.996;2023-08-06T11:33:45;99243.31;;;19.15;55.03
4570;BME280;2297;51.442;6.996;2023-08-06T11:36:13;99244.84;;;18.69;59.04
4570;BME280;2297;51.442;6.996;2023-08-06T11:38:40;99257.28;;;18.57;58.21
4570;BME280;2297;51.442;6.996;2023-08-06T11:41:06;99251.34;;;17.87;60.65
4570;BME280;2297;51.442;6.996;2023-08-06T11:43:33;99253.56;;;17.68;61.90
4570;BME280;2297;51.442;6.996;2023-08-06T11:46:00;99258.56;;;18.12;60.15
4570;BME280;2297;51.442;6.996;2023-08-06T11:48:54;99268.09;;;17.76;61.33
4570;BME280;2297;51.442;6.996;2023-08-06T11:51:24;99276.69;;;17.12;63.31
4570;BME280;2297;51.442;6.996;2023-08-06T11:53:51;99276.56;;;17.28;65.53
4570;BME280;2297;51.442;6.996;2023-08-06T11:56:17;99279.78;;;17.34;70.29
4570;BME280;2297;51.442;6.996;2023-08-06T11:58:44;99291.50;;;16.75;70.55
4570;BME280;2297;51.442;6.996;2023-08-06T12:01:11;99287.13;;;16.88;73.73
4570;BME280;2297;51.442;6.996;2023-08-06T12:03:39;99285.69;;;16.83;72.51
4570;BME280;2297;51.442;6.996;2023-08-06T12:06:05;99294.06;;;16.47;75.02
4570;BME280;2297;51.442;6.996;2023-08-06T12:08:36;99299.97;;;16.67;74.34
4570;BME280;2297;51.442;6.996;2023-08-06T12:11:03;99304.94;;;16.73;73.79
4570;BME280;2297;51.442;6.996;2023-08-06T12:13:30;99305.06;;;16.12;74.68
4570;BME280;2297;51.442;6.996;2023-08-06T12:15:57;99313.84;;;15.99;74.63
4570;BME280;2297;51.442;6.996;2023-08-06T12:18:23;99307.78;;;16.27;73.04
4570;BME280;2297;51.442;6.996;2023-08-06T12:20:50;99304.34;;;16.54;72.83
4570;BME280;2297;51.442;6.996;2023-08-06T12:23:17;99316.34;;;15.71;72.03
4570;BME280;2297;51.442;6.996;2023-08-06T12:25:45;99317.03;;;16.05;76.25
4570;BME280;2297;51.442;6.996;2023-08-06T12:28:12;99308.78;;;16.10;74.63
4570;BME280;2297;51.442;6.996;2023-08-06T12:30:39;99311.72;;;15.59;75.04
4570;BME280;2297;51.442;6.996;2023-08-06T12:33:08;99313.31;;;15.77;73.82
4570;BME280;2297;51.442;6.996;2023-08-06T12:35:34;99322.88;;;15.96;73.41
4570;BME280;2297;51.442;6.996;2023-08-06T12:38:02;99322.81;;;15.82;72.51
4570;BME280;2297;51.442;6.996;2023-08-06T12:40:29;99332.41;;;16.00;71.79
4570;BME280;2297;51.442;6.996;2023-08-06T12:42:57;99337.19;;;16.09;72.44
4570;BME280;2297;51.442;6.996;2023-08-06T12:45:24;99338.72;;;15.83;70.96
4570;BME280;2297;51.442;6.996;2023-08-06T12:47:51;99352.63;;;16.19;70.09
4570;BME280;2297;51.442;6.996;2023-08-06T12:50:17;99341.53;;;16.26;70.22
4570;BME280;2297;51.442;6.996;2023-08-06T12:52:44;99342.75;;;16.21;69.68
4570;BME280;2297;51.442;6.996;2023-08-06T12:55:11;99352.41;;;16.38;69.67
4570;BME280;2297;51.442;6.996;2023-08-06T12:57:37;99346.41;;;16.49;69.32
4570;BME280;2297;51.442;6.996;2023-08-06T13:00:07;99349.50;;;17.00;68.99
4570;BME280;2297;51.442;6.996;2023-08-06T13:02:34;99346.25;;;16.80;67.74
4570;BME280;2297;51.442;6.996;2023-08-06T13:05:01;99356.63;;;17.00;67.41
4570;BME280;2297;51.442;6.996;2023-08-06T13:07:30;99369.09;;;16.70;65.75
4570;BME280;2297;51.442;6.996;2023-08-06T13:09:57;99369.28;;;16.67;66.30
4570;BME280;2297;51.442;6.996;2023-08-06T13:12:24;99372.81;;;15.76;67.68
4570;BME280;2297;51.442;6.996;2023-08-06T13:14:51;99377.19;;;16.24;66.74
4570;BME280;2297;51.442;6.996;2023-08-06T13:17:19;99374.66;;;16.37;65.96
4570;BME280;2297;51.442;6.996;2023-08-06T13:19:46;99385.13;;;16.09;66.00
4570;BME280;2297;51.442;6.996;2023-08-06T13:22:13;99383.94;;;16.45;65.49
4570;BME280;2297;51.442;6.996;2023-08-06T13:24:39;99394.16;;;16.37;65.80